createdAt,value
2023-02-15T00:00:18.327Z,1016.11
2023-02-15T00:01:18.630Z,1016.13
2023-02-15T00:02:19.915Z,1016.09
2023-02-15T00:03:19.253Z,1016.04
2023-02-15T00:04:21.499Z,1016.12
2023-02-15T00:05:20.767Z,1016.06
2023-02-15T00:06:22.001Z,1016.09
2023-02-15T00:07:22.238Z,1016.04
2023-02-15T00:08:21.469Z,1016.08
2023-02-15T00:09:22.712Z,1016.03
2023-02-15T00:10:21.048Z,1016.01
2023-02-15T00:11:21.322Z,1016.01
2023-02-15T00:12:22.566Z,1016.01
2023-02-15T00:13:21.938Z,1016.01
2023-02-15T00:14:22.337Z,1016.02
2023-02-15T00:15:23.633Z,1015.99
2023-02-15T00:16:23.907Z,1015.99
2023-02-15T00:17:23.239Z,1016.00
2023-02-15T00:18:25.203Z,1016.01
2023-02-15T00:19:23.975Z,1016.03
2023-02-15T00:20:24.357Z,1015.96
2023-02-15T00:21:25.559Z,1016.00
2023-02-15T00:22:24.907Z,1015.96
2023-02-15T00:23:25.149Z,1015.97
2023-02-15T00:24:25.426Z,1015.98
2023-02-15T00:25:26.735Z,1015.95
2023-02-15T00:26:26.203Z,1016.02
2023-02-15T00:27:26.962Z,1015.94
2023-02-15T00:28:27.227Z,1015.94
2023-02-15T00:29:28.582Z,1015.94
2023-02-15T00:30:28.020Z,1015.92
2023-02-15T00:31:26.982Z,1015.88
2023-02-15T00:32:27.290Z,1015.93
2023-02-15T00:33:27.520Z,1015.93
2023-02-15T00:34:27.806Z,1015.93
2023-02-15T00:35:29.142Z,1015.92
2023-02-15T00:36:29.443Z,1015.98
2023-02-15T00:37:29.944Z,1015.95
2023-02-15T00:38:29.265Z,1015.91
2023-02-15T00:39:29.529Z,1015.96
2023-02-15T00:40:29.882Z,1015.93
2023-02-15T00:41:30.166Z,1015.89
2023-02-15T00:42:30.420Z,1015.91
2023-02-15T00:43:30.829Z,1015.92
2023-02-15T00:44:32.088Z,1015.91
2023-02-15T00:45:32.408Z,1015.90
2023-02-15T00:46:33.748Z,1015.94
2023-02-15T00:47:32.086Z,1015.93
2023-02-15T00:48:32.384Z,1015.94
2023-02-15T00:49:34.165Z,1015.91
2023-02-15T00:50:32.954Z,1015.89
2023-02-15T00:51:35.204Z,1015.93
2023-02-15T00:52:33.524Z,1015.92
2023-02-15T00:53:33.764Z,1015.92
2023-02-15T00:54:34.000Z,1015.97
2023-02-15T00:55:34.313Z,1015.93
2023-02-15T00:56:36.527Z,1015.95
2023-02-15T00:57:34.901Z,1015.92
2023-02-15T00:58:36.163Z,1015.98
2023-02-15T00:59:35.512Z,1015.92
2023-02-15T01:00:35.795Z,1015.96
2023-02-15T01:01:37.056Z,1015.89
2023-02-15T01:02:36.352Z,1015.92
2023-02-15T01:03:37.610Z,1015.90
2023-02-15T01:04:37.837Z,1015.88
2023-02-15T01:05:37.162Z,1015.90
2023-02-15T01:06:37.807Z,1015.90
2023-02-15T01:07:38.436Z,1015.90
2023-02-15T01:08:39.667Z,1015.89
2023-02-15T01:09:38.274Z,1015.85
2023-02-15T01:10:38.090Z,1015.88
2023-02-15T01:11:38.433Z,1015.86
2023-02-15T01:12:38.749Z,1015.81
2023-02-15T01:13:39.049Z,1015.87
2023-02-15T01:14:39.402Z,1015.85
2023-02-15T01:15:43.938Z,1015.82
2023-02-15T01:16:39.984Z,1015.80
2023-02-15T01:17:41.426Z,1015.78
2023-02-15T01:18:41.696Z,1015.79
2023-02-15T01:19:40.980Z,1015.85
2023-02-15T01:21:26.696Z,1015.79
2023-02-15T01:22:26.179Z,1015.82
2023-02-15T01:23:28.250Z,1015.83
2023-02-15T01:24:26.579Z,1015.86
2023-02-15T01:25:26.838Z,1015.85
2023-02-15T01:26:27.156Z,1015.89
2023-02-15T01:27:27.480Z,1015.86
2023-02-15T01:28:27.824Z,1015.83
2023-02-15T01:29:28.133Z,1015.76
2023-02-15T01:30:28.466Z,1015.75
2023-02-15T01:31:29.786Z,1015.78
2023-02-15T01:32:30.151Z,1015.79
2023-02-15T01:33:29.453Z,1015.73
2023-02-15T01:34:31.173Z,1015.73
2023-02-15T01:35:29.950Z,1015.76
2023-02-15T01:36:30.248Z,1015.81
2023-02-15T01:37:30.569Z,1015.78
2023-02-15T01:38:30.805Z,1015.76
2023-02-15T01:39:31.156Z,1015.74
2023-02-15T01:40:31.445Z,1015.75
2023-02-15T01:41:31.721Z,1015.76
2023-02-15T01:42:32.131Z,1015.78
2023-02-15T01:43:33.217Z,1015.78
2023-02-15T01:44:32.478Z,1015.79
2023-02-15T01:45:32.864Z,1015.77
2023-02-15T01:46:33.243Z,1015.79
2023-02-15T01:47:33.601Z,1015.77
2023-02-15T01:48:33.925Z,1015.77
2023-02-15T01:49:36.201Z,1015.73
2023-02-15T01:50:34.446Z,1015.77
2023-02-15T01:51:35.742Z,1015.75
2023-02-15T01:52:34.986Z,1015.75
2023-02-15T01:53:35.260Z,1015.71
2023-02-15T01:54:35.488Z,1015.71
2023-02-15T01:55:35.834Z,1015.68
2023-02-15T01:56:36.098Z,1015.69
2023-02-15T01:57:36.346Z,1015.69
2023-02-15T01:58:36.631Z,1015.70
2023-02-15T01:59:36.922Z,1015.67
2023-02-15T02:00:37.338Z,1015.73
2023-02-15T02:01:40.382Z,1015.68
2023-02-15T02:02:38.737Z,1015.70
2023-02-15T02:03:38.000Z,1015.70
2023-02-15T02:04:38.451Z,1015.72
2023-02-15T02:05:39.709Z,1015.69
2023-02-15T02:06:39.127Z,1015.67
2023-02-15T02:07:39.439Z,1015.70
2023-02-15T02:08:40.695Z,1015.74
2023-02-15T02:09:39.971Z,1015.66
2023-02-15T02:10:40.229Z,1015.62
2023-02-15T02:11:40.496Z,1015.63
2023-02-15T02:12:40.828Z,1015.63
2023-02-15T02:13:41.109Z,1015.62
2023-02-15T02:14:41.406Z,1015.61
2023-02-15T02:15:41.713Z,1015.58
2023-02-15T02:16:42.027Z,1015.56
2023-02-15T02:17:42.346Z,1015.53
2023-02-15T02:18:42.591Z,1015.51
2023-02-15T02:19:43.821Z,1015.51
2023-02-15T02:20:43.033Z,1015.50
2023-02-15T02:21:43.472Z,1015.51
2023-02-15T02:22:45.708Z,1015.50
2023-02-15T02:23:43.997Z,1015.44
2023-02-15T02:24:44.232Z,1015.48
2023-02-15T02:25:44.470Z,1015.52
2023-02-15T02:26:44.917Z,1015.42
2023-02-15T02:27:45.237Z,1015.42
2023-02-15T02:28:45.576Z,1015.35
2023-02-15T02:29:46.821Z,1015.38
2023-02-15T02:30:46.130Z,1015.34
2023-02-15T02:31:47.528Z,1015.31
2023-02-15T02:32:46.767Z,1015.29
2023-02-15T02:33:47.169Z,1015.28
2023-02-15T02:34:48.424Z,1015.27
2023-02-15T02:35:49.240Z,1015.33
2023-02-15T02:36:49.052Z,1015.29
2023-02-15T02:37:48.451Z,1015.32
2023-02-15T02:38:48.790Z,1015.29
2023-02-15T02:39:49.211Z,1015.26
2023-02-15T02:40:49.530Z,1015.36
2023-02-15T02:41:50.760Z,1015.31
2023-02-15T02:42:50.126Z,1015.32
2023-02-15T02:43:52.295Z,1015.31
2023-02-15T02:44:50.634Z,1015.31
2023-02-15T02:45:51.113Z,1015.24
2023-02-15T02:46:51.989Z,1015.29
2023-02-15T02:47:51.382Z,1015.23
2023-02-15T02:48:51.741Z,1015.18
2023-02-15T02:49:53.118Z,1015.25
2023-02-15T02:50:52.632Z,1015.22
2023-02-15T02:51:52.439Z,1015.11
2023-02-15T02:52:52.808Z,1015.09
2023-02-15T02:53:54.205Z,1015.15
2023-02-15T02:54:54.553Z,1015.13
2023-02-15T02:55:54.135Z,1015.10
2023-02-15T02:56:53.925Z,1015.09
2023-02-15T02:57:54.353Z,1015.03
2023-02-15T02:58:54.772Z,1015.05
2023-02-15T02:59:56.949Z,1015.04
2023-02-15T03:00:56.238Z,1015.00
2023-02-15T03:01:55.607Z,1015.00
2023-02-15T03:02:55.943Z,1014.97
2023-02-15T03:03:56.309Z,1014.96
2023-02-15T03:04:57.812Z,1014.95
2023-02-15T03:05:56.691Z,1014.94
2023-02-15T03:06:57.796Z,1014.88
2023-02-15T03:07:57.987Z,1014.95
2023-02-15T03:08:57.271Z,1014.90
2023-02-15T03:09:58.623Z,1014.96
2023-02-15T03:10:58.035Z,1014.95
2023-02-15T03:11:58.574Z,1014.97
2023-02-15T03:12:58.399Z,1014.95
2023-02-15T03:14:00.635Z,1014.90
2023-02-15T03:14:59.026Z,1014.95
2023-02-15T03:16:00.674Z,1014.92
2023-02-15T03:17:00.838Z,1014.84
2023-02-15T03:18:01.097Z,1014.86
2023-02-15T03:19:00.450Z,1014.86
2023-02-15T03:20:00.749Z,1014.88
2023-02-15T03:21:02.026Z,1014.85
2023-02-15T03:22:03.302Z,1014.88
2023-02-15T03:23:01.770Z,1014.89
2023-02-15T03:24:02.056Z,1014.91
2023-02-15T03:25:02.425Z,1014.91
2023-02-15T03:26:03.954Z,1014.92
2023-02-15T03:27:03.900Z,1014.89
2023-02-15T03:28:03.994Z,1014.92
2023-02-15T03:29:04.335Z,1014.91
2023-02-15T03:30:04.722Z,1014.91
2023-02-15T03:31:05.130Z,1014.95
2023-02-15T03:32:05.420Z,1014.89
2023-02-15T03:33:05.875Z,1014.87
2023-02-15T03:34:05.949Z,1014.86
2023-02-15T03:35:06.210Z,1014.83
2023-02-15T03:36:07.163Z,1014.86
2023-02-15T03:37:08.275Z,1014.86
2023-02-15T03:38:07.177Z,1014.86
2023-02-15T03:39:07.578Z,1014.84
2023-02-15T03:40:07.958Z,1014.85
2023-02-15T03:41:08.256Z,1014.88
2023-02-15T03:42:08.511Z,1014.85
2023-02-15T03:43:08.676Z,1014.87
2023-02-15T03:44:08.947Z,1014.90
2023-02-15T03:45:09.183Z,1014.84
2023-02-15T03:46:09.447Z,1014.86
2023-02-15T03:47:09.709Z,1014.79
2023-02-15T03:48:10.260Z,1014.84
2023-02-15T03:49:10.044Z,1014.83
2023-02-15T03:50:10.292Z,1014.85
2023-02-15T03:51:10.577Z,1014.87
2023-02-15T03:52:11.374Z,1014.86
2023-02-15T03:53:11.195Z,1014.87
2023-02-15T03:54:12.057Z,1014.87
2023-02-15T03:55:11.826Z,1014.85
2023-02-15T03:56:12.042Z,1014.84
2023-02-15T03:57:12.256Z,1014.83
2023-02-15T03:58:12.619Z,1014.88
2023-02-15T03:59:13.022Z,1014.90
2023-02-15T04:00:13.965Z,1014.88
2023-02-15T04:01:12.922Z,1014.87
2023-02-15T04:02:12.921Z,1014.83
2023-02-15T04:03:13.300Z,1014.85
2023-02-15T04:04:15.011Z,1014.87
2023-02-15T04:05:14.812Z,1014.84
2023-02-15T04:06:14.406Z,1014.87
2023-02-15T04:07:14.239Z,1014.85
2023-02-15T04:08:16.587Z,1014.88
2023-02-15T04:09:14.864Z,1014.83
2023-02-15T04:10:17.134Z,1014.85
2023-02-15T04:11:15.466Z,1014.80
2023-02-15T04:12:15.831Z,1014.79
2023-02-15T04:13:16.193Z,1014.78
2023-02-15T04:14:17.495Z,1014.78
2023-02-15T04:15:16.840Z,1014.78
2023-02-15T04:16:17.165Z,1014.68
2023-02-15T04:17:17.411Z,1014.67
2023-02-15T04:18:18.556Z,1014.64
2023-02-15T04:19:17.909Z,1014.68
2023-02-15T04:20:19.065Z,1014.60
2023-02-15T04:21:18.357Z,1014.64
2023-02-15T04:22:18.662Z,1014.63
2023-02-15T04:23:18.932Z,1014.60
2023-02-15T04:24:20.658Z,1014.60
2023-02-15T04:25:20.609Z,1014.58
2023-02-15T04:26:19.888Z,1014.59
2023-02-15T04:27:21.295Z,1014.61
2023-02-15T04:28:20.624Z,1014.56
2023-02-15T04:29:22.921Z,1014.55
2023-02-15T04:30:21.392Z,1014.59
2023-02-15T04:31:21.330Z,1014.59
2023-02-15T04:32:22.693Z,1014.60
2023-02-15T04:33:22.080Z,1014.67
2023-02-15T04:34:23.325Z,1014.60
2023-02-15T04:35:22.762Z,1014.67
2023-02-15T04:36:23.063Z,1014.68
2023-02-15T04:37:23.485Z,1014.70
2023-02-15T04:38:23.720Z,1014.61
2023-02-15T04:39:24.052Z,1014.60
2023-02-15T04:40:25.360Z,1014.59
2023-02-15T04:41:24.687Z,1014.60
2023-02-15T04:42:25.972Z,1014.58
2023-02-15T04:43:25.265Z,1014.54
2023-02-15T04:44:25.604Z,1014.49
2023-02-15T04:45:25.916Z,1014.56
2023-02-15T04:46:26.254Z,1014.54
2023-02-15T04:47:27.545Z,1014.60
2023-02-15T04:48:28.765Z,1014.57
2023-02-15T04:49:27.092Z,1014.50
2023-02-15T04:50:28.447Z,1014.54
2023-02-15T04:51:29.284Z,1014.49
2023-02-15T04:52:28.179Z,1014.54
2023-02-15T04:53:29.629Z,1014.48
2023-02-15T04:54:29.514Z,1014.50
2023-02-15T04:55:29.928Z,1014.55
2023-02-15T04:56:29.308Z,1014.44
2023-02-15T04:57:30.574Z,1014.44
2023-02-15T04:58:30.260Z,1014.47
2023-02-15T04:59:31.070Z,1014.41
2023-02-15T05:00:30.505Z,1014.46
2023-02-15T05:01:32.856Z,1014.41
2023-02-15T05:02:31.171Z,1014.43
2023-02-15T05:03:32.402Z,1014.43
2023-02-15T05:04:32.803Z,1014.45
2023-02-15T05:05:32.152Z,1014.41
2023-02-15T05:06:35.447Z,1014.44
2023-02-15T05:07:33.932Z,1014.41
2023-02-15T05:08:33.923Z,1014.36
2023-02-15T05:09:33.246Z,1014.40
2023-02-15T05:10:33.585Z,1014.45
2023-02-15T05:11:35.594Z,1014.34
2023-02-15T05:12:33.998Z,1014.39
2023-02-15T05:13:34.272Z,1014.34
2023-02-15T05:14:34.590Z,1014.39
2023-02-15T05:15:35.031Z,1014.40
2023-02-15T05:16:35.585Z,1014.41
2023-02-15T05:17:37.414Z,1014.35
2023-02-15T05:18:35.710Z,1014.36
2023-02-15T05:19:36.992Z,1014.39
2023-02-15T05:20:37.372Z,1014.39
2023-02-15T05:21:38.233Z,1014.37
2023-02-15T05:22:37.940Z,1014.35
2023-02-15T05:23:37.325Z,1014.34
2023-02-15T05:24:37.681Z,1014.31
2023-02-15T05:25:38.016Z,1014.30
2023-02-15T05:26:38.357Z,1014.25
2023-02-15T05:27:40.646Z,1014.26
2023-02-15T05:28:40.025Z,1014.28
2023-02-15T05:29:41.303Z,1014.28
2023-02-15T05:30:39.818Z,1014.28
2023-02-15T05:31:41.495Z,1014.36
2023-02-15T05:32:40.074Z,1014.38
2023-02-15T05:33:41.960Z,1014.40
2023-02-15T05:34:40.344Z,1014.37
2023-02-15T05:35:40.729Z,1014.40
2023-02-15T05:36:41.953Z,1014.41
2023-02-15T05:37:41.406Z,1014.37
2023-02-15T05:38:42.754Z,1014.40
2023-02-15T05:39:42.092Z,1014.36
2023-02-15T05:40:42.455Z,1014.41
2023-02-15T05:41:42.758Z,1014.41
2023-02-15T05:42:43.018Z,1014.40
2023-02-15T05:43:43.575Z,1014.41
2023-02-15T05:44:43.505Z,1014.34
2023-02-15T05:45:43.450Z,1014.37
2023-02-15T05:46:44.690Z,1014.32
2023-02-15T05:47:44.920Z,1014.35
2023-02-15T05:48:44.273Z,1014.31
2023-02-15T05:49:44.580Z,1014.34
2023-02-15T05:50:47.078Z,1014.35
2023-02-15T05:51:45.861Z,1014.30
2023-02-15T05:52:47.113Z,1014.38
2023-02-15T05:53:47.342Z,1014.36
2023-02-15T05:54:46.939Z,1014.35
2023-02-15T05:55:47.136Z,1014.31
2023-02-15T05:56:47.836Z,1014.27
2023-02-15T05:57:46.292Z,1014.28
2023-02-15T05:58:46.540Z,1014.29
2023-02-15T05:59:48.901Z,1014.25
2023-02-15T06:00:47.186Z,1014.27
2023-02-15T06:01:47.449Z,1014.26
2023-02-15T06:02:47.782Z,1014.27
2023-02-15T06:03:48.120Z,1014.28
2023-02-15T06:04:51.181Z,1014.35
2023-02-15T06:05:49.792Z,1014.30
2023-02-15T06:06:50.779Z,1014.30
2023-02-15T06:07:49.130Z,1014.31
2023-02-15T06:08:49.561Z,1014.33
2023-02-15T06:09:50.831Z,1014.33
2023-02-15T06:10:50.119Z,1014.36
2023-02-15T06:11:50.440Z,1014.29
2023-02-15T06:12:50.794Z,1014.29
2023-02-15T06:13:52.649Z,1014.30
2023-02-15T06:14:52.458Z,1014.37
2023-02-15T06:15:51.778Z,1014.34
2023-02-15T06:16:52.130Z,1014.36
2023-02-15T06:17:52.666Z,1014.35
2023-02-15T06:18:53.754Z,1014.38
2023-02-15T06:19:52.899Z,1014.33
2023-02-15T06:20:54.179Z,1014.33
2023-02-15T06:21:55.103Z,1014.35
2023-02-15T06:22:54.862Z,1014.39
2023-02-15T06:23:54.287Z,1014.37
2023-02-15T06:24:54.752Z,1014.41
2023-02-15T06:25:55.144Z,1014.39
2023-02-15T06:26:56.472Z,1014.37
2023-02-15T06:27:56.529Z,1014.41
2023-02-15T06:28:55.846Z,1014.35
2023-02-15T06:29:56.588Z,1014.40
2023-02-15T06:30:56.937Z,1014.33
2023-02-15T06:31:56.965Z,1014.35
2023-02-15T06:32:57.392Z,1014.34
2023-02-15T06:33:57.993Z,1014.37
2023-02-15T06:34:58.052Z,1014.34
2023-02-15T06:35:58.010Z,1014.32
2023-02-15T06:36:59.384Z,1014.33
2023-02-15T06:37:59.745Z,1014.34
2023-02-15T06:38:59.151Z,1014.29
2023-02-15T06:40:03.661Z,1014.30
2023-02-15T06:41:00.564Z,1014.25
2023-02-15T06:42:00.114Z,1014.28
2023-02-15T06:43:01.852Z,1014.22
2023-02-15T06:44:00.830Z,1014.23
2023-02-15T06:45:02.189Z,1014.24
2023-02-15T06:46:01.901Z,1014.24
2023-02-15T06:47:00.897Z,1014.23
2023-02-15T06:48:02.291Z,1014.27
2023-02-15T06:49:01.614Z,1014.24
2023-02-15T06:50:02.500Z,1014.19
2023-02-15T06:51:02.360Z,1014.23
2023-02-15T06:52:04.069Z,1014.26
2023-02-15T06:53:03.704Z,1014.26
2023-02-15T06:54:03.190Z,1014.22
2023-02-15T06:55:05.544Z,1014.26
2023-02-15T06:56:03.974Z,1014.22
2023-02-15T06:57:05.341Z,1014.16
2023-02-15T06:58:05.660Z,1014.20
2023-02-15T06:59:06.059Z,1014.21
2023-02-15T07:00:05.422Z,1014.21
2023-02-15T07:01:05.790Z,1014.24
2023-02-15T07:02:06.172Z,1014.23
2023-02-15T07:03:06.649Z,1014.19
2023-02-15T07:04:07.481Z,1014.21
2023-02-15T07:05:07.791Z,1014.23
2023-02-15T07:06:08.193Z,1014.20
2023-02-15T07:07:07.646Z,1014.23
2023-02-15T07:08:08.132Z,1014.27
2023-02-15T07:09:08.637Z,1014.23
2023-02-15T07:10:08.428Z,1014.24
2023-02-15T07:11:10.211Z,1014.22
2023-02-15T07:12:11.073Z,1014.18
2023-02-15T07:13:10.359Z,1014.24
2023-02-15T07:14:09.777Z,1014.16
2023-02-15T07:15:12.105Z,1014.21
2023-02-15T07:16:10.536Z,1014.22
2023-02-15T07:17:34.347Z,1014.18
2023-02-15T07:18:11.994Z,1014.18
2023-02-15T07:19:12.376Z,1014.10
2023-02-15T07:20:12.868Z,1014.16
2023-02-15T07:21:13.318Z,1014.15
2023-02-15T07:22:13.206Z,1014.21
2023-02-15T07:23:12.671Z,1014.15
2023-02-15T07:24:13.124Z,1014.14
2023-02-15T07:25:14.683Z,1014.12
2023-02-15T07:26:13.689Z,1014.12
2023-02-15T07:27:14.769Z,1014.15
2023-02-15T07:28:14.599Z,1014.21
2023-02-15T07:29:14.123Z,1014.17
2023-02-15T07:30:14.130Z,1014.15
2023-02-15T07:31:16.325Z,1014.15
2023-02-15T07:32:15.072Z,1014.16
2023-02-15T07:33:14.463Z,1014.18
2023-02-15T07:34:14.813Z,1014.20
2023-02-15T07:35:16.139Z,1014.17
2023-02-15T07:36:17.032Z,1014.24
2023-02-15T07:37:15.967Z,1014.23
2023-02-15T07:38:16.266Z,1014.21
2023-02-15T07:39:16.679Z,1014.25
2023-02-15T07:40:17.399Z,1014.23
2023-02-15T07:41:18.124Z,1014.17
2023-02-15T07:42:19.440Z,1014.15
2023-02-15T07:43:18.766Z,1014.19
2023-02-15T07:44:18.924Z,1014.23
2023-02-15T07:45:19.211Z,1014.20
2023-02-15T07:46:19.598Z,1014.18
2023-02-15T07:47:19.859Z,1014.28
2023-02-15T07:48:19.368Z,1014.22
2023-02-15T07:49:20.287Z,1014.27
2023-02-15T07:50:19.771Z,1014.23
2023-02-15T07:51:21.872Z,1014.27
2023-02-15T07:52:20.368Z,1014.22
2023-02-15T07:53:20.721Z,1014.26
2023-02-15T07:54:22.383Z,1014.29
2023-02-15T07:55:22.253Z,1014.26
2023-02-15T07:56:23.033Z,1014.22
2023-02-15T07:57:22.906Z,1014.33
2023-02-15T07:58:23.649Z,1014.30
2023-02-15T07:59:23.462Z,1014.32
2023-02-15T08:00:22.892Z,1014.28
2023-02-15T08:01:25.522Z,1014.25
2023-02-15T08:02:25.619Z,1014.23
2023-02-15T08:03:25.694Z,1014.19
2023-02-15T08:04:24.726Z,1014.17
2023-02-15T08:05:24.628Z,1014.21
2023-02-15T08:06:24.068Z,1014.18
2023-02-15T08:07:25.412Z,1014.16
2023-02-15T08:08:26.852Z,1014.18
2023-02-15T08:09:24.913Z,1014.20
2023-02-15T08:10:24.841Z,1014.22
2023-02-15T08:11:25.318Z,1014.16
2023-02-15T08:12:26.338Z,1014.22
2023-02-15T08:13:25.846Z,1014.22
2023-02-15T08:14:26.811Z,1014.18
2023-02-15T08:15:27.119Z,1014.14
2023-02-15T08:16:26.809Z,1014.12
2023-02-15T08:17:26.811Z,1014.11
2023-02-15T08:18:28.087Z,1014.08
2023-02-15T08:19:27.495Z,1014.12
2023-02-15T08:20:28.001Z,1014.07
2023-02-15T08:21:28.596Z,1014.10
2023-02-15T08:22:28.541Z,1014.05
2023-02-15T08:23:30.354Z,1014.06
2023-02-15T08:24:29.828Z,1013.98
2023-02-15T08:25:30.197Z,1013.97
2023-02-15T08:26:30.157Z,1013.94
2023-02-15T08:27:30.448Z,1013.93
2023-02-15T08:28:30.534Z,1013.88
2023-02-15T08:29:31.513Z,1013.89
2023-02-15T08:30:30.770Z,1013.92
2023-02-15T08:31:30.424Z,1013.86
2023-02-15T08:32:30.925Z,1013.79
2023-02-15T08:33:31.043Z,1013.81
2023-02-15T08:34:31.236Z,1013.81
2023-02-15T08:35:31.387Z,1013.81
2023-02-15T08:36:31.366Z,1013.78
2023-02-15T08:37:31.307Z,1013.80
2023-02-15T08:38:33.479Z,1013.72
2023-02-15T08:39:32.735Z,1013.74
2023-02-15T08:40:32.126Z,1013.77
2023-02-15T08:41:32.481Z,1013.73
2023-02-15T08:42:32.975Z,1013.76
2023-02-15T08:43:33.009Z,1013.78
2023-02-15T08:44:33.013Z,1013.74
2023-02-15T08:45:33.349Z,1013.80
2023-02-15T08:46:33.809Z,1013.80
2023-02-15T08:47:34.382Z,1013.77
2023-02-15T08:48:34.356Z,1013.79
2023-02-15T08:49:35.333Z,1013.74
2023-02-15T08:50:34.840Z,1013.75
2023-02-15T08:51:35.014Z,1013.75
2023-02-15T08:52:35.393Z,1013.73
2023-02-15T08:53:35.834Z,1013.74
2023-02-15T08:54:36.350Z,1013.75
2023-02-15T08:55:36.431Z,1013.74
2023-02-15T08:56:37.909Z,1013.80
2023-02-15T08:57:38.057Z,1013.77
2023-02-15T08:58:37.163Z,1013.75
2023-02-15T08:59:36.991Z,1013.72
2023-02-15T09:00:37.294Z,1013.74
2023-02-15T09:01:37.841Z,1013.75
2023-02-15T09:02:37.853Z,1013.76
2023-02-15T09:03:38.310Z,1013.75
2023-02-15T09:04:38.308Z,1013.76
2023-02-15T09:05:39.419Z,1013.74
2023-02-15T09:06:39.632Z,1013.76
2023-02-15T09:07:38.948Z,1013.73
2023-02-15T09:08:39.446Z,1013.75
2023-02-15T09:09:39.365Z,1013.73
2023-02-15T09:10:39.769Z,1013.68
2023-02-15T09:11:40.188Z,1013.67
2023-02-15T09:12:40.713Z,1013.71
2023-02-15T09:13:41.110Z,1013.66
2023-02-15T09:14:41.415Z,1013.72
2023-02-15T09:15:41.931Z,1013.64
2023-02-15T09:16:41.923Z,1013.67
2023-02-15T09:17:42.278Z,1013.65
2023-02-15T09:18:42.813Z,1013.66
2023-02-15T09:19:42.730Z,1013.64
2023-02-15T09:20:43.082Z,1013.58
2023-02-15T09:21:42.988Z,1013.67
2023-02-15T09:22:43.586Z,1013.67
2023-02-15T09:23:44.588Z,1013.62
2023-02-15T09:24:44.028Z,1013.62
2023-02-15T09:25:44.993Z,1013.62
2023-02-15T09:26:44.693Z,1013.62
2023-02-15T09:27:44.838Z,1013.63
2023-02-15T09:28:45.057Z,1013.60
2023-02-15T09:29:45.260Z,1013.54
2023-02-15T09:30:46.338Z,1013.51
2023-02-15T09:31:45.672Z,1013.56
2023-02-15T09:32:45.699Z,1013.55
2023-02-15T09:33:46.220Z,1013.54
2023-02-15T09:34:46.157Z,1013.51
2023-02-15T09:35:46.602Z,1013.58
2023-02-15T09:36:46.754Z,1013.64
2023-02-15T09:37:47.993Z,1013.64
2023-02-15T09:38:47.361Z,1013.63
2023-02-15T09:39:49.074Z,1013.52
2023-02-15T09:40:47.934Z,1013.52
2023-02-15T09:41:47.968Z,1013.54
2023-02-15T09:42:48.077Z,1013.55
2023-02-15T09:43:48.100Z,1013.56
2023-02-15T09:44:48.070Z,1013.59
2023-02-15T09:45:48.878Z,1013.61
2023-02-15T09:46:49.067Z,1013.58
2023-02-15T09:47:49.157Z,1013.52
2023-02-15T09:48:49.056Z,1013.55
2023-02-15T09:49:49.559Z,1013.55
2023-02-15T09:50:50.363Z,1013.57
2023-02-15T09:51:50.142Z,1013.55
2023-02-15T09:52:50.177Z,1013.54
2023-02-15T09:53:51.126Z,1013.55
2023-02-15T09:54:51.297Z,1013.55
2023-02-15T09:55:51.601Z,1013.57
2023-02-15T09:56:51.487Z,1013.57
2023-02-15T09:57:52.666Z,1013.63
2023-02-15T09:58:52.199Z,1013.65
2023-02-15T09:59:53.112Z,1013.68
2023-02-15T10:00:53.746Z,1013.67
2023-02-15T10:01:53.102Z,1013.70
2023-02-15T10:02:52.980Z,1013.65
2023-02-15T10:03:54.937Z,1013.66
2023-02-15T10:04:53.699Z,1013.65
2023-02-15T10:05:53.900Z,1013.65
2023-02-15T10:06:54.823Z,1013.66
2023-02-15T10:07:54.601Z,1013.62
2023-02-15T10:08:55.476Z,1013.61
2023-02-15T10:09:54.939Z,1013.62
2023-02-15T10:10:55.181Z,1013.55
2023-02-15T10:11:55.348Z,1013.54
2023-02-15T10:12:55.455Z,1013.52
2023-02-15T10:13:55.600Z,1013.56
2023-02-15T10:14:55.638Z,1013.61
2023-02-15T10:15:56.180Z,1013.61
2023-02-15T10:16:57.068Z,1013.55
2023-02-15T10:17:56.676Z,1013.58
2023-02-15T10:18:56.755Z,1013.57
2023-02-15T10:19:57.369Z,1013.57
2023-02-15T10:20:57.027Z,1013.60
2023-02-15T10:21:57.229Z,1013.55
2023-02-15T10:22:57.260Z,1013.57
2023-02-15T10:23:57.844Z,1013.53
2023-02-15T10:24:58.675Z,1013.52
2023-02-15T10:25:57.950Z,1013.50
2023-02-15T10:26:58.633Z,1013.51
2023-02-15T10:27:58.457Z,1013.50
2023-02-15T10:28:59.285Z,1013.49
2023-02-15T10:29:58.950Z,1013.49
2023-02-15T10:30:59.086Z,1013.52
2023-02-15T10:31:59.323Z,1013.52
2023-02-15T10:32:59.243Z,1013.47
2023-02-15T10:34:00.123Z,1013.48
2023-02-15T10:35:01.038Z,1013.47
2023-02-15T10:36:00.590Z,1013.44
2023-02-15T10:37:00.628Z,1013.43
2023-02-15T10:38:03.778Z,1013.40
2023-02-15T10:39:01.367Z,1013.39
2023-02-15T10:40:00.883Z,1013.40
2023-02-15T10:41:01.675Z,1013.44
2023-02-15T10:42:02.018Z,1013.41
2023-02-15T10:43:02.024Z,1013.35
2023-02-15T10:44:02.304Z,1013.31
2023-02-15T10:45:02.192Z,1013.41
2023-02-15T10:46:02.519Z,1013.45
2023-02-15T10:47:04.030Z,1013.48
2023-02-15T10:48:03.724Z,1013.43
2023-02-15T10:49:04.563Z,1013.37
2023-02-15T10:50:04.784Z,1013.33
2023-02-15T10:51:03.934Z,1013.38
2023-02-15T10:52:03.833Z,1013.37
2023-02-15T10:53:05.751Z,1013.35
2023-02-15T10:54:04.518Z,1013.36
2023-02-15T10:55:04.494Z,1013.32
2023-02-15T10:56:05.307Z,1013.33
2023-02-15T10:57:04.853Z,1013.35
2023-02-15T10:58:04.827Z,1013.40
2023-02-15T10:59:05.820Z,1013.38
2023-02-15T11:00:08.308Z,1013.34
2023-02-15T11:01:06.252Z,1013.31
2023-02-15T11:02:06.793Z,1013.32
2023-02-15T11:03:07.108Z,1013.30
2023-02-15T11:04:07.016Z,1013.24
2023-02-15T11:05:07.322Z,1013.23
2023-02-15T11:06:07.393Z,1013.25
2023-02-15T11:07:09.132Z,1013.19
2023-02-15T11:08:07.673Z,1013.26
2023-02-15T11:09:08.059Z,1013.26
2023-02-15T11:10:08.317Z,1013.24
2023-02-15T11:11:08.022Z,1013.27
2023-02-15T11:12:08.987Z,1013.26
2023-02-15T11:13:10.619Z,1013.23
2023-02-15T11:14:08.630Z,1013.29
2023-02-15T11:15:09.927Z,1013.25
2023-02-15T11:16:10.336Z,1013.26
2023-02-15T11:17:09.489Z,1013.30
2023-02-15T11:18:09.620Z,1013.24
2023-02-15T11:19:09.717Z,1013.26
2023-02-15T11:20:10.718Z,1013.27
2023-02-15T11:21:10.588Z,1013.29
2023-02-15T11:22:11.601Z,1013.26
2023-02-15T11:23:10.882Z,1013.21
2023-02-15T11:24:10.795Z,1013.26
2023-02-15T11:25:11.434Z,1013.15
2023-02-15T11:26:11.838Z,1013.20
2023-02-15T11:27:11.708Z,1013.23
2023-02-15T11:28:12.192Z,1013.19
2023-02-15T11:29:12.391Z,1013.24
2023-02-15T11:30:13.699Z,1013.24
2023-02-15T11:31:12.435Z,1013.12
2023-02-15T11:32:12.641Z,1013.17
2023-02-15T11:33:13.411Z,1013.10
2023-02-15T11:34:14.506Z,1013.08
2023-02-15T11:35:14.632Z,1013.11
2023-02-15T11:36:14.843Z,1013.06
2023-02-15T11:37:13.903Z,1013.07
2023-02-15T11:38:14.549Z,1013.02
2023-02-15T11:39:14.832Z,1013.04
2023-02-15T11:40:15.197Z,1013.09
2023-02-15T11:41:15.248Z,1013.02
2023-02-15T11:42:20.735Z,1013.04
2023-02-15T11:43:15.729Z,1013.02
2023-02-15T11:44:18.743Z,1013.00
2023-02-15T11:45:16.103Z,1013.05
2023-02-15T11:46:16.556Z,1012.93
2023-02-15T11:47:17.635Z,1012.94
2023-02-15T11:52:47.889Z,1012.99
2023-02-15T11:53:55.185Z,1012.91
2023-02-15T11:54:51.081Z,1012.94
2023-02-15T11:55:52.519Z,1012.95
2023-02-15T11:59:11.084Z,1012.85
2023-02-15T12:00:05.810Z,1012.87
2023-02-15T12:01:10.096Z,1012.87
2023-02-15T12:02:33.099Z,1012.84
2023-02-15T12:11:29.196Z,1012.80
2023-02-15T12:14:34.554Z,1012.75
2023-02-15T12:15:06.624Z,1012.77
2023-02-15T12:16:08.768Z,1012.79
2023-02-15T12:17:11.735Z,1012.71
2023-02-15T12:18:16.399Z,1012.70
2023-02-15T12:19:09.841Z,1012.69
2023-02-15T12:20:13.302Z,1012.62
2023-02-15T12:21:12.768Z,1012.66
2023-02-15T12:22:17.624Z,1012.66
2023-02-15T12:38:23.422Z,1012.63
2023-02-15T12:39:13.782Z,1012.61
2023-02-15T12:50:18.470Z,1012.42
2023-02-15T12:51:01.370Z,1012.44